Portada
METAR-TAF:

METAR-TAF

Aeroports :

Phillip Goldston

Belize City, Belize

latitud: 17-32N, longitud: 088-18W, altitud: 5 m

Observació

L'informe es va fer fa 1 hora i 12 minuts, a les 21:00 UTC
Vent 9 kt del Est
Temperatura 32°C
Humitat 75%
Pressió 1011 hPa
Visibilitat 10 km o més
Núvols disperses a una alçada de 2600 ft

METAR: MZBZ 212100Z 10009KT 9999 SCT026 32/27 A2988 Q1011 NOSIG

Hora: 16:12 (22:12 UTC)

Pronòstic

L'informe es va fer fa 7 hores i 12 minuts, a les 15:00 UTC
Pronòstic vàlid del 21 a les 18 UTC al 22 a les 18 UTC
Vent 10 kt del Est
Visibilitat 10 km o més
Núvols disperses a una alçada de 2300 ft

TAF: MZBZ 211500Z 2118/2218 10010KT 9999 SCT023

Observacions i pronòstics meteorològics de més de 4000 aeroports (METAR i TAF).

Les estacions disponibles són els punts grocs i vermells al mapa.

Posi el ratolí al punt desitjat per veure el nom de l'estació.

Feu clic per veure les observacions i els pronòstics meteorològics.

Per canviar el mapa: feu clic els botons verds amb una creu de color negre per apropar; al botó verd amb un guió per allunyar la imatge; o en les fletxes verdes per a mapes adjacents.


METAR-TAF: